createdAt,value
2022-10-22T00:01:38.928Z,100.00
2022-10-22T00:04:06.189Z,100.00
2022-10-22T00:06:33.494Z,100.00
2022-10-22T00:09:00.593Z,100.00
2022-10-22T00:11:27.214Z,100.00
2022-10-22T00:13:53.974Z,100.00
2022-10-22T00:16:20.681Z,100.00
2022-10-22T00:18:47.280Z,100.00
2022-10-22T00:21:14.136Z,100.00
2022-10-22T00:23:42.597Z,100.00
2022-10-22T00:26:09.915Z,99.29
2022-10-22T00:28:36.743Z,99.15
2022-10-22T00:31:03.300Z,100.00
2022-10-22T00:33:30.336Z,100.00
2022-10-22T00:35:57.023Z,100.00
2022-10-22T00:38:23.751Z,100.00
2022-10-22T00:40:50.529Z,100.00
2022-10-22T00:43:19.437Z,100.00
2022-10-22T00:45:46.833Z,100.00
2022-10-22T00:48:19.015Z,100.00
2022-10-22T00:50:56.538Z,100.00
2022-10-22T00:53:43.181Z,100.00
2022-10-22T00:56:10.161Z,100.00
2022-10-22T00:58:39.813Z,100.00
2022-10-22T01:01:09.206Z,100.00
2022-10-22T01:03:36.059Z,100.00
2022-10-22T01:06:05.093Z,100.00
2022-10-22T01:08:40.840Z,100.00
2022-10-22T01:11:50.290Z,100.00
2022-10-22T01:14:42.242Z,100.00
2022-10-22T01:17:46.191Z,100.00
2022-10-22T01:20:27.832Z,100.00
2022-10-22T01:23:15.819Z,100.00
2022-10-22T01:25:58.555Z,100.00
2022-10-22T01:28:59.244Z,100.00
2022-10-22T01:31:39.489Z,100.00
2022-10-22T01:34:08.347Z,100.00
2022-10-22T01:36:37.437Z,100.00
2022-10-22T01:39:05.566Z,100.00
2022-10-22T01:41:32.182Z,100.00
2022-10-22T01:43:58.700Z,100.00
2022-10-22T01:46:28.206Z,100.00
2022-10-22T01:49:23.843Z,100.00
2022-10-22T01:52:25.000Z,100.00
2022-10-22T01:55:32.567Z,100.00
2022-10-22T01:58:22.648Z,100.00
2022-10-22T02:01:07.508Z,100.00
2022-10-22T02:03:45.088Z,100.00
2022-10-22T02:06:18.781Z,100.00
2022-10-22T02:08:47.027Z,100.00
2022-10-22T02:11:15.643Z,100.00
2022-10-22T02:13:51.184Z,100.00
2022-10-22T02:16:34.412Z,100.00
2022-10-22T02:19:06.772Z,100.00
2022-10-22T02:21:33.372Z,100.00
2022-10-22T02:24:00.350Z,100.00
2022-10-22T02:26:39.204Z,100.00
2022-10-22T02:29:13.183Z,100.00
2022-10-22T02:31:43.065Z,100.00
2022-10-22T02:34:14.666Z,100.00
2022-10-22T02:36:46.779Z,100.00
2022-10-22T02:41:48.760Z,100.00
2022-10-22T02:44:15.592Z,100.00
2022-10-22T02:46:43.340Z,100.00
2022-10-22T02:49:09.864Z,100.00
2022-10-22T02:51:36.428Z,100.00
2022-10-22T02:54:03.005Z,100.00
2022-10-22T02:56:29.511Z,100.00
2022-10-22T02:58:56.059Z,100.00
2022-10-22T03:01:22.617Z,100.00
2022-10-22T03:03:49.305Z,100.00
2022-10-22T03:06:16.641Z,100.00
2022-10-22T03:08:43.119Z,100.00
2022-10-22T03:11:09.752Z,100.00
2022-10-22T03:13:36.319Z,100.00
2022-10-22T03:16:02.929Z,100.00
2022-10-22T03:18:29.446Z,100.00
2022-10-22T03:21:23.356Z,100.00
2022-10-22T03:23:50.129Z,100.00
2022-10-22T03:26:16.699Z,100.00
2022-10-22T03:28:43.616Z,100.00
2022-10-22T03:31:10.121Z,100.00
2022-10-22T03:33:36.656Z,100.00
2022-10-22T03:36:03.234Z,100.00
2022-10-22T03:38:30.431Z,100.00
2022-10-22T03:40:57.534Z,100.00
2022-10-22T03:43:24.245Z,100.00
2022-10-22T03:45:50.798Z,100.00
2022-10-22T03:48:17.288Z,100.00
2022-10-22T03:50:43.804Z,100.00
2022-10-22T03:53:10.669Z,100.00
2022-10-22T03:55:38.422Z,100.00
2022-10-22T03:58:05.480Z,100.00
2022-10-22T04:00:34.344Z,100.00
2022-10-22T04:03:01.072Z,100.00
2022-10-22T04:05:27.649Z,100.00
2022-10-22T04:07:54.215Z,100.00
2022-10-22T04:10:20.758Z,100.00
2022-10-22T04:12:48.539Z,100.00
2022-10-22T04:15:15.128Z,99.22
2022-10-22T04:17:41.876Z,100.00
2022-10-22T04:20:09.229Z,100.00
2022-10-22T04:22:36.216Z,100.00
2022-10-22T04:25:04.329Z,100.00
2022-10-22T04:27:32.559Z,100.00
2022-10-22T04:29:59.154Z,100.00
2022-10-22T04:32:26.911Z,100.00
2022-10-22T04:34:53.408Z,100.00
2022-10-22T04:37:20.477Z,100.00
2022-10-22T04:39:46.999Z,100.00
2022-10-22T04:42:13.782Z,100.00
2022-10-22T04:44:40.296Z,100.00
2022-10-22T04:47:06.800Z,100.00
2022-10-22T04:49:33.288Z,100.00
2022-10-22T04:51:59.830Z,100.00
2022-10-22T04:54:29.037Z,100.00
2022-10-22T04:56:58.751Z,100.00
2022-10-22T04:59:25.325Z,100.00
2022-10-22T05:01:51.896Z,100.00
2022-10-22T05:04:19.746Z,100.00
2022-10-22T05:06:46.644Z,100.00
2022-10-22T05:09:17.097Z,100.00
2022-10-22T05:11:46.375Z,100.00
2022-10-22T05:14:13.109Z,100.00
2022-10-22T05:16:39.804Z,100.00
2022-10-22T05:19:07.950Z,100.00
2022-10-22T05:21:34.760Z,100.00
2022-10-22T05:24:01.306Z,100.00
2022-10-22T05:26:29.126Z,100.00
2022-10-22T05:28:56.779Z,100.00
2022-10-22T05:31:23.746Z,100.00
2022-10-22T05:33:50.335Z,100.00
2022-10-22T05:36:22.312Z,100.00
2022-10-22T05:38:49.357Z,100.00
2022-10-22T05:41:18.647Z,100.00
2022-10-22T05:43:45.598Z,100.00
2022-10-22T05:46:22.248Z,100.00
2022-10-22T05:48:58.330Z,100.00
2022-10-22T05:51:26.610Z,100.00
2022-10-22T05:53:58.072Z,100.00
2022-10-22T05:56:26.187Z,100.00
2022-10-22T05:58:53.236Z,100.00
2022-10-22T06:01:25.600Z,100.00
2022-10-22T06:03:58.099Z,100.00
2022-10-22T06:06:27.271Z,97.15
2022-10-22T06:08:55.597Z,95.22
2022-10-22T06:11:23.493Z,94.90
2022-10-22T06:13:50.899Z,93.95
2022-10-22T06:16:17.332Z,92.10
2022-10-22T06:18:44.023Z,93.48
2022-10-22T06:21:13.105Z,93.03
2022-10-22T06:23:40.464Z,92.54
2022-10-22T06:26:07.178Z,92.38
2022-10-22T06:28:34.028Z,92.45
2022-10-22T06:31:02.684Z,90.61
2022-10-22T06:33:31.222Z,89.66
2022-10-22T06:36:08.977Z,88.80
2022-10-22T06:38:35.535Z,88.35
2022-10-22T06:41:06.836Z,88.07
2022-10-22T06:43:33.387Z,88.31
2022-10-22T06:46:05.987Z,89.29
2022-10-22T06:48:33.399Z,88.26
2022-10-22T06:51:03.765Z,87.09
2022-10-22T06:53:30.603Z,85.34
2022-10-22T06:55:57.401Z,84.22
2022-10-22T06:58:24.347Z,84.17
2022-10-22T07:01:01.084Z,82.85
2022-10-22T07:03:27.651Z,81.23
2022-10-22T07:05:54.189Z,79.73
2022-10-22T07:08:20.689Z,79.73
2022-10-22T07:10:47.194Z,79.41
2022-10-22T07:13:13.896Z,79.11
2022-10-22T07:15:40.388Z,78.18
2022-10-22T07:18:06.898Z,76.88
2022-10-22T07:20:33.454Z,76.02
2022-10-22T07:22:59.946Z,74.19
2022-10-22T07:25:26.484Z,72.96
2022-10-22T07:27:52.984Z,72.45
2022-10-22T07:30:19.467Z,70.53
2022-10-22T07:32:45.976Z,69.48
2022-10-22T07:35:12.489Z,69.86
2022-10-22T07:37:39.470Z,69.18
2022-10-22T07:40:06.851Z,66.08
2022-10-22T07:42:33.420Z,65.33
2022-10-22T07:44:59.946Z,64.61
2022-10-22T07:47:26.559Z,64.21
2022-10-22T07:49:53.060Z,63.86
2022-10-22T07:52:19.551Z,63.38
2022-10-22T07:54:46.028Z,63.24
2022-10-22T07:57:12.561Z,63.18
2022-10-22T07:59:39.059Z,63.81
2022-10-22T08:02:05.592Z,63.09
2022-10-22T08:04:32.124Z,64.34
2022-10-22T08:06:58.640Z,63.73
2022-10-22T08:09:25.158Z,62.97
2022-10-22T08:11:51.781Z,60.76
2022-10-22T08:14:18.307Z,60.91
2022-10-22T08:16:44.977Z,58.98
2022-10-22T08:19:11.534Z,56.68
2022-10-22T08:21:38.041Z,57.26
2022-10-22T08:24:04.945Z,55.18
2022-10-22T08:26:31.583Z,55.81
2022-10-22T08:28:58.118Z,54.60
2022-10-22T08:31:24.676Z,56.50
2022-10-22T08:33:51.238Z,56.54
2022-10-22T08:36:17.747Z,57.62
2022-10-22T08:38:44.285Z,57.01
2022-10-22T08:41:15.933Z,56.12
2022-10-22T08:43:54.324Z,54.30
2022-10-22T08:46:48.105Z,52.21
2022-10-22T08:49:25.565Z,50.82
2022-10-22T08:51:52.505Z,52.36
2022-10-22T08:54:34.131Z,52.40
2022-10-22T08:57:19.137Z,49.98
2022-10-22T09:00:06.054Z,49.36
2022-10-22T09:02:33.681Z,47.53
2022-10-22T09:05:15.177Z,45.69
2022-10-22T09:07:44.008Z,44.31
2022-10-22T09:10:12.961Z,45.18
2022-10-22T09:12:39.531Z,46.49
2022-10-22T09:15:06.695Z,47.78
2022-10-22T09:17:53.871Z,48.48
2022-10-22T09:20:26.336Z,49.13
2022-10-22T09:23:20.446Z,51.98
2022-10-22T09:25:49.160Z,51.74
2022-10-22T09:28:16.057Z,52.82
2022-10-22T09:30:43.414Z,54.08
2022-10-22T09:33:09.859Z,54.16
2022-10-22T09:35:46.353Z,54.67
2022-10-22T09:38:15.199Z,54.36
2022-10-22T09:40:48.378Z,54.85
2022-10-22T09:43:15.307Z,54.68
2022-10-22T09:45:43.103Z,55.82
2022-10-22T09:48:11.773Z,57.41
2022-10-22T09:50:54.938Z,58.63
2022-10-22T09:53:30.751Z,55.71
2022-10-22T09:55:59.679Z,55.21
2022-10-22T09:58:27.112Z,55.44
2022-10-22T10:00:55.687Z,54.91
2022-10-22T10:03:26.337Z,56.89
2022-10-22T10:06:00.163Z,56.12
2022-10-22T10:08:29.831Z,55.07
2022-10-22T10:11:05.575Z,55.07
2022-10-22T10:13:53.655Z,54.84
2022-10-22T10:16:44.910Z,54.67
2022-10-22T10:19:37.693Z,54.37
2022-10-22T10:22:23.960Z,53.66
2022-10-22T10:25:06.958Z,53.18
2022-10-22T10:28:00.407Z,52.88
2022-10-22T10:30:27.451Z,52.98
2022-10-22T10:33:12.202Z,52.61
2022-10-22T10:35:52.301Z,52.24
2022-10-22T10:38:29.530Z,51.34
2022-10-22T10:41:13.060Z,50.35
2022-10-22T10:44:11.915Z,49.76
2022-10-22T10:47:08.204Z,49.30
2022-10-22T10:49:36.159Z,49.54
2022-10-22T10:52:24.839Z,48.15
2022-10-22T10:55:12.746Z,48.80
2022-10-22T10:57:42.536Z,48.08
2022-10-22T11:00:20.347Z,48.85
2022-10-22T11:03:14.825Z,48.08
2022-10-22T11:05:53.039Z,47.44
2022-10-22T11:08:27.344Z,45.29
2022-10-22T11:11:21.609Z,45.08
2022-10-22T11:14:11.267Z,45.37
2022-10-22T11:16:47.347Z,43.46
2022-10-22T11:19:46.046Z,44.19
2022-10-22T11:22:14.167Z,44.26
2022-10-22T11:24:52.669Z,43.80
2022-10-22T11:27:31.948Z,42.67
2022-10-22T11:30:06.376Z,42.41
2022-10-22T11:32:33.447Z,39.18
2022-10-22T11:35:04.862Z,38.75
2022-10-22T11:37:35.256Z,38.74
2022-10-22T11:40:14.655Z,37.72
2022-10-22T11:42:47.892Z,39.06
2022-10-22T11:45:14.409Z,42.13
2022-10-22T11:48:19.354Z,35.79
2022-10-22T11:50:56.636Z,36.31
2022-10-22T11:53:26.069Z,36.57
2022-10-22T11:55:56.136Z,37.20
2022-10-22T11:58:33.272Z,35.97
2022-10-22T12:01:02.739Z,35.25
2022-10-22T12:03:32.409Z,37.59
2022-10-22T12:06:04.736Z,35.10
2022-10-22T12:08:33.148Z,34.93
2022-10-22T12:11:13.357Z,35.01
2022-10-22T12:14:02.770Z,35.44
2022-10-22T12:16:54.246Z,34.83
2022-10-22T12:19:27.478Z,35.06
2022-10-22T12:22:02.034Z,35.51
2022-10-22T12:24:35.277Z,35.62
2022-10-22T12:27:01.971Z,34.19
2022-10-22T12:29:32.258Z,34.29
2022-10-22T12:32:03.309Z,33.87
2022-10-22T12:34:30.006Z,33.64
2022-10-22T12:36:56.553Z,33.00
2022-10-22T12:39:27.431Z,34.85
2022-10-22T12:41:54.993Z,32.63
2022-10-22T12:44:21.720Z,33.42
2022-10-22T12:46:53.008Z,33.72
2022-10-22T12:49:27.436Z,33.54
2022-10-22T12:51:54.748Z,33.11
2022-10-22T12:54:28.912Z,35.28
2022-10-22T12:56:57.273Z,33.38
2022-10-22T12:59:35.979Z,33.14
2022-10-22T13:02:11.869Z,34.43
2022-10-22T13:04:38.703Z,34.46
2022-10-22T13:07:17.115Z,34.05
2022-10-22T13:09:59.848Z,34.01
2022-10-22T13:12:28.843Z,34.03
2022-10-22T13:14:55.384Z,33.97
2022-10-22T13:17:40.856Z,34.98
2022-10-22T13:20:22.077Z,34.54
2022-10-22T13:22:55.829Z,34.91
2022-10-22T13:25:31.788Z,35.86
2022-10-22T13:28:02.861Z,35.23
2022-10-22T13:30:37.111Z,34.96
2022-10-22T13:33:17.687Z,35.34
2022-10-22T13:35:44.255Z,36.13
2022-10-22T13:38:19.900Z,37.05
2022-10-22T13:40:46.889Z,37.67
2022-10-22T13:43:13.856Z,37.62
2022-10-22T13:45:40.460Z,36.28
2022-10-22T13:48:12.894Z,35.81
2022-10-22T13:50:39.463Z,35.53
2022-10-22T13:53:06.484Z,35.08
2022-10-22T13:55:32.997Z,35.46
2022-10-22T13:58:13.379Z,35.08
2022-10-22T14:00:43.836Z,35.89
2022-10-22T14:03:12.698Z,36.45
2022-10-22T14:05:39.288Z,36.65
2022-10-22T14:08:13.882Z,36.71
2022-10-22T14:10:40.379Z,37.47
2022-10-22T14:13:14.544Z,38.06
2022-10-22T14:15:42.889Z,38.32
2022-10-22T14:18:15.456Z,38.87
2022-10-22T14:20:42.694Z,39.35
2022-10-22T14:23:14.267Z,39.20
2022-10-22T14:25:41.382Z,39.34
2022-10-22T14:28:11.038Z,39.89
2022-10-22T14:30:38.022Z,39.82
2022-10-22T14:33:14.005Z,40.25
2022-10-22T14:35:40.500Z,40.45
2022-10-22T14:38:07.030Z,41.20
2022-10-22T14:40:33.643Z,41.31
2022-10-22T14:43:00.146Z,41.48
2022-10-22T14:45:27.387Z,42.18
2022-10-22T14:47:55.684Z,43.18
2022-10-22T14:50:22.468Z,43.88
2022-10-22T14:52:48.992Z,44.37
2022-10-22T14:55:17.351Z,48.72
2022-10-22T14:57:44.458Z,51.22
2022-10-22T15:00:15.724Z,51.61
2022-10-22T15:02:42.598Z,52.37
2022-10-22T15:05:10.241Z,49.34
2022-10-22T15:07:37.787Z,49.45
2022-10-22T15:10:05.654Z,48.67
2022-10-22T15:12:32.807Z,48.85
2022-10-22T15:14:59.556Z,48.78
2022-10-22T15:17:26.532Z,48.95
2022-10-22T15:19:53.286Z,51.15
2022-10-22T15:22:19.808Z,52.53
2022-10-22T15:24:46.388Z,53.88
2022-10-22T15:27:13.840Z,50.67
2022-10-22T15:29:41.935Z,50.46
2022-10-22T15:32:12.227Z,56.84
2022-10-22T15:34:39.808Z,57.13
2022-10-22T15:37:10.682Z,56.08
2022-10-22T15:39:40.666Z,59.05
2022-10-22T15:42:07.712Z,61.77
2022-10-22T15:44:34.356Z,53.32
2022-10-22T15:47:03.792Z,52.81
2022-10-22T15:49:30.493Z,52.85
2022-10-22T15:51:57.060Z,54.39
2022-10-22T15:54:28.111Z,53.62
2022-10-22T15:56:55.855Z,53.64
2022-10-22T15:59:23.011Z,53.06
2022-10-22T16:01:50.091Z,52.83
2022-10-22T16:04:17.168Z,52.84
2022-10-22T16:06:48.058Z,52.79
2022-10-22T16:09:20.691Z,53.01
2022-10-22T16:11:47.429Z,52.90
2022-10-22T16:14:16.361Z,52.95
2022-10-22T16:16:45.935Z,53.04
2022-10-22T16:19:14.459Z,53.53
2022-10-22T16:21:41.555Z,53.35
2022-10-22T16:24:09.651Z,53.51
2022-10-22T16:26:36.349Z,53.75
2022-10-22T16:29:05.576Z,53.58
2022-10-22T16:31:32.105Z,53.83
2022-10-22T16:33:58.681Z,53.79
2022-10-22T16:36:25.686Z,54.39
2022-10-22T16:38:52.268Z,54.75
2022-10-22T16:41:21.863Z,54.81
2022-10-22T16:43:51.174Z,54.60
2022-10-22T16:46:19.798Z,54.61
2022-10-22T16:48:51.947Z,54.78
2022-10-22T16:51:21.516Z,55.05
2022-10-22T16:53:48.942Z,55.13
2022-10-22T16:56:16.548Z,55.55
2022-10-22T16:58:48.888Z,55.59
2022-10-22T17:01:18.177Z,55.83
2022-10-22T17:03:45.559Z,56.21
2022-10-22T17:06:12.207Z,56.01
2022-10-22T17:08:39.816Z,56.15
2022-10-22T17:11:08.716Z,56.09
2022-10-22T17:13:35.595Z,55.98
2022-10-22T17:16:07.343Z,56.21
2022-10-22T17:18:35.696Z,56.49
2022-10-22T17:21:04.667Z,56.65
2022-10-22T17:23:31.440Z,56.75
2022-10-22T17:26:00.052Z,58.29
2022-10-22T17:28:27.138Z,60.31
2022-10-22T17:31:17.155Z,57.54
2022-10-22T17:33:44.601Z,57.38
2022-10-22T17:36:12.845Z,57.96
2022-10-22T17:38:41.516Z,57.60
2022-10-22T17:41:11.469Z,57.46
2022-10-22T17:43:41.253Z,57.82
2022-10-22T17:46:11.284Z,57.55
2022-10-22T17:48:37.899Z,57.57
2022-10-22T17:51:09.229Z,58.95
2022-10-22T17:53:35.900Z,63.11
2022-10-22T17:56:06.980Z,65.75
2022-10-22T17:58:33.516Z,68.63
2022-10-22T18:01:00.196Z,69.57
2022-10-22T18:03:27.974Z,69.56
2022-10-22T18:05:54.917Z,73.70
2022-10-22T18:08:24.106Z,75.94
2022-10-22T18:10:50.662Z,76.52
2022-10-22T18:13:17.222Z,75.49
2022-10-22T18:15:43.743Z,75.70
2022-10-22T18:18:10.263Z,75.98
2022-10-22T18:20:36.774Z,77.84
2022-10-22T18:23:03.709Z,78.57
2022-10-22T18:25:31.787Z,78.49
2022-10-22T18:27:58.413Z,77.68
2022-10-22T18:30:24.891Z,78.06
2022-10-22T18:32:51.812Z,79.09
2022-10-22T18:35:18.362Z,76.00
2022-10-22T18:37:45.082Z,77.68
2022-10-22T18:40:14.576Z,78.44
2022-10-22T18:42:41.703Z,79.41
2022-10-22T18:45:08.866Z,82.11
2022-10-22T18:47:39.257Z,82.92
2022-10-22T18:50:06.222Z,82.69
2022-10-22T18:52:33.053Z,81.82
2022-10-22T18:54:59.575Z,82.16
2022-10-22T18:57:26.103Z,82.54
2022-10-22T18:59:54.688Z,83.37
2022-10-22T19:02:23.828Z,84.64
2022-10-22T19:04:50.447Z,87.07
2022-10-22T19:07:16.956Z,84.95
2022-10-22T19:09:43.779Z,85.99
2022-10-22T19:12:10.514Z,83.25
2022-10-22T19:14:37.128Z,86.28
2022-10-22T19:17:03.779Z,85.24
2022-10-22T19:19:30.365Z,85.66
2022-10-22T19:21:59.419Z,84.48
2022-10-22T19:24:26.920Z,81.55
2022-10-22T19:26:53.431Z,82.61
2022-10-22T19:29:21.159Z,83.79
2022-10-22T19:31:50.575Z,83.76
2022-10-22T19:34:17.436Z,82.70
2022-10-22T19:36:44.088Z,83.56
2022-10-22T19:39:10.635Z,83.86
2022-10-22T19:41:37.349Z,84.71
2022-10-22T19:44:04.080Z,85.13
2022-10-22T19:46:32.588Z,85.62
2022-10-22T19:48:59.736Z,86.30
2022-10-22T19:51:29.817Z,86.75
2022-10-22T19:54:01.659Z,88.85
2022-10-22T19:56:28.859Z,88.60
2022-10-22T19:58:55.516Z,89.20
2022-10-22T20:01:22.682Z,88.58
2022-10-22T20:03:49.685Z,88.75
2022-10-22T20:06:17.988Z,88.15
2022-10-22T20:08:45.795Z,91.97
2022-10-22T20:11:18.896Z,93.78
2022-10-22T20:13:49.593Z,95.25
2022-10-22T20:16:23.221Z,94.03
2022-10-22T20:18:50.960Z,92.67
2022-10-22T20:21:19.377Z,92.27
2022-10-22T20:23:47.047Z,89.73
2022-10-22T20:26:14.071Z,89.40
2022-10-22T20:28:40.588Z,89.67
2022-10-22T20:31:16.076Z,89.62
2022-10-22T20:33:42.914Z,90.91
2022-10-22T20:36:14.269Z,90.20
2022-10-22T20:38:40.784Z,90.15
2022-10-22T20:41:10.637Z,89.82
2022-10-22T20:43:37.293Z,89.05
2022-10-22T20:46:04.323Z,90.21
2022-10-22T20:48:31.769Z,91.34
2022-10-22T20:50:59.084Z,92.57
2022-10-22T20:53:27.660Z,93.90
2022-10-22T20:55:58.563Z,94.00
2022-10-22T20:58:27.063Z,91.66
2022-10-22T21:00:54.816Z,92.53
2022-10-22T21:03:21.427Z,93.08
2022-10-22T21:05:48.040Z,94.53
2022-10-22T21:08:17.463Z,95.41
2022-10-22T21:10:46.472Z,96.61
2022-10-22T21:13:13.513Z,95.95
2022-10-22T21:15:40.021Z,94.74
2022-10-22T21:18:07.379Z,93.80
2022-10-22T21:20:34.008Z,92.47
2022-10-22T21:23:00.515Z,92.01
2022-10-22T21:25:27.054Z,92.09
2022-10-22T21:27:53.554Z,92.66
2022-10-22T21:30:20.063Z,95.48
2022-10-22T21:32:46.621Z,95.14
2022-10-22T21:35:13.163Z,94.98
2022-10-22T21:37:39.887Z,95.84
2022-10-22T21:40:07.344Z,95.32
2022-10-22T21:42:33.989Z,96.32
2022-10-22T21:45:00.561Z,95.65
2022-10-22T21:47:27.131Z,94.57
2022-10-22T21:49:53.865Z,96.03
2022-10-22T21:52:20.357Z,97.01
2022-10-22T21:54:46.884Z,98.05
2022-10-22T21:57:13.411Z,100.00
2022-10-22T21:59:40.009Z,100.00
2022-10-22T22:02:06.650Z,100.00
2022-10-22T22:04:33.312Z,98.08
2022-10-22T22:06:59.842Z,99.78
2022-10-22T22:09:26.388Z,98.16
2022-10-22T22:11:52.889Z,97.05
2022-10-22T22:14:19.487Z,96.75
2022-10-22T22:16:45.991Z,96.43
2022-10-22T22:19:12.558Z,97.67
2022-10-22T22:21:40.499Z,97.90
2022-10-22T22:24:09.019Z,96.51
2022-10-22T22:26:36.273Z,96.77
2022-10-22T22:29:03.028Z,97.30
2022-10-22T22:31:32.409Z,96.88
2022-10-22T22:34:06.555Z,97.68
2022-10-22T22:36:36.099Z,98.49
2022-10-22T22:39:04.724Z,98.86
2022-10-22T22:41:31.434Z,98.07
2022-10-22T22:43:57.966Z,97.75
2022-10-22T22:46:24.515Z,97.92
2022-10-22T22:48:51.098Z,99.13
2022-10-22T22:51:17.787Z,99.34
2022-10-22T22:53:44.656Z,98.09
2022-10-22T22:56:25.502Z,99.17
2022-10-22T22:58:52.132Z,98.90
2022-10-22T23:01:24.429Z,99.28
2022-10-22T23:03:57.932Z,99.85
2022-10-22T23:06:27.225Z,99.49
2022-10-22T23:08:54.579Z,99.02
2022-10-22T23:11:21.850Z,98.96
2022-10-22T23:13:51.688Z,98.86
2022-10-22T23:16:20.794Z,98.72
2022-10-22T23:18:48.965Z,99.14
2022-10-22T23:21:20.586Z,98.83
2022-10-22T23:23:52.632Z,98.78
2022-10-22T23:26:22.123Z,97.60
2022-10-22T23:28:49.234Z,98.42
2022-10-22T23:31:17.521Z,98.52
2022-10-22T23:33:44.647Z,98.67
2022-10-22T23:36:12.270Z,98.97
2022-10-22T23:38:40.094Z,100.00
2022-10-22T23:41:07.297Z,100.00
2022-10-22T23:43:37.885Z,100.00
2022-10-22T23:46:10.521Z,99.46
2022-10-22T23:48:39.185Z,99.50
2022-10-22T23:51:11.862Z,99.03
2022-10-22T23:53:39.175Z,99.77
2022-10-22T23:56:08.244Z,100.00
2022-10-22T23:58:35.454Z,100.00
